createdAt,value
2022-09-01T00:00:03.005Z,0.00
2022-09-01T00:01:02.475Z,0.00
2022-09-01T00:02:02.495Z,0.00
2022-09-01T00:03:02.498Z,0.00
2022-09-01T00:04:02.547Z,0.00
2022-09-01T00:05:02.394Z,0.00
2022-09-01T00:06:02.374Z,0.00
2022-09-01T00:07:02.365Z,0.00
2022-09-01T00:08:02.275Z,0.00
2022-09-01T00:09:02.350Z,0.00
2022-09-01T00:10:02.303Z,0.00
2022-09-01T00:11:02.286Z,0.00
2022-09-01T00:12:02.341Z,0.00
2022-09-01T00:13:02.241Z,0.00
2022-09-01T00:14:02.319Z,0.00
2022-09-01T00:15:02.242Z,0.00
2022-09-01T00:16:02.302Z,0.00
2022-09-01T00:17:02.183Z,0.00
2022-09-01T00:18:02.169Z,0.00
2022-09-01T00:19:02.142Z,0.00
2022-09-01T00:20:02.167Z,0.00
2022-09-01T00:21:02.140Z,0.00
2022-09-01T00:22:02.075Z,0.00
2022-09-01T00:23:02.049Z,0.00
2022-09-01T00:24:02.066Z,0.00
2022-09-01T00:25:02.056Z,0.00
2022-09-01T00:26:02.050Z,0.00
2022-09-01T00:27:01.969Z,0.00
2022-09-01T00:28:02.029Z,0.00
2022-09-01T00:29:01.939Z,0.00
2022-09-01T00:30:02.034Z,0.00
2022-09-01T00:31:02.017Z,0.00
2022-09-01T00:32:01.883Z,0.00
2022-09-01T00:33:01.849Z,0.00
2022-09-01T00:34:01.835Z,0.00
2022-09-01T00:35:01.818Z,0.00
2022-09-01T00:36:01.833Z,0.00
2022-09-01T00:37:01.836Z,0.00
2022-09-01T00:38:01.762Z,0.00
2022-09-01T00:39:01.737Z,0.00
2022-09-01T00:40:01.737Z,0.00
2022-09-01T00:41:01.727Z,0.00
2022-09-01T00:42:01.767Z,0.00
2022-09-01T00:43:01.678Z,0.00
2022-09-01T00:44:01.650Z,0.00
2022-09-01T00:45:01.664Z,0.00
2022-09-01T00:46:01.804Z,0.00
2022-09-01T00:47:01.621Z,0.00
2022-09-01T00:48:01.572Z,0.00
2022-09-01T00:49:01.564Z,0.00
2022-09-01T00:50:01.546Z,0.00
2022-09-01T00:51:01.565Z,0.00
2022-09-01T00:52:01.558Z,0.00
2022-09-01T00:53:01.478Z,0.00
2022-09-01T00:54:01.468Z,0.00
2022-09-01T00:55:01.495Z,0.00
2022-09-01T00:56:01.405Z,0.00
2022-09-01T00:57:01.411Z,0.00
2022-09-01T00:58:01.376Z,0.00
2022-09-01T00:59:01.342Z,0.00
2022-09-01T01:00:01.346Z,0.00
2022-09-01T01:01:01.357Z,0.00
2022-09-01T01:02:01.334Z,0.00
2022-09-01T01:03:01.386Z,0.00
2022-09-01T01:04:01.273Z,0.00
2022-09-01T01:05:01.267Z,0.00
2022-09-01T01:06:01.230Z,0.00
2022-09-01T01:07:01.218Z,0.00
2022-09-01T01:08:01.170Z,0.00
2022-09-01T01:09:01.170Z,0.00
2022-09-01T01:10:01.164Z,0.00
2022-09-01T01:11:01.176Z,0.00
2022-09-01T01:12:01.115Z,0.00
2022-09-01T01:13:04.127Z,0.00
2022-09-01T01:14:01.143Z,0.00
2022-09-01T01:15:01.089Z,0.00
2022-09-01T01:16:01.057Z,0.00
2022-09-01T01:17:01.144Z,0.00
2022-09-01T01:18:01.011Z,0.00
2022-09-01T01:19:00.990Z,0.00
2022-09-01T01:20:01.114Z,0.00
2022-09-01T01:21:00.957Z,0.00
2022-09-01T01:22:00.935Z,0.00
2022-09-01T01:23:00.908Z,0.00
2022-09-01T01:24:00.894Z,0.00
2022-09-01T01:25:00.911Z,0.00
2022-09-01T01:26:00.890Z,0.00
2022-09-01T01:27:00.852Z,1.00
2022-09-01T01:28:00.831Z,0.00
2022-09-01T01:29:00.853Z,0.00
2022-09-01T01:30:00.796Z,0.00
2022-09-01T01:31:00.825Z,0.00
2022-09-01T01:32:00.748Z,0.00
2022-09-01T01:33:00.730Z,0.00
2022-09-01T01:34:00.719Z,0.00
2022-09-01T01:35:00.701Z,0.00
2022-09-01T01:36:00.679Z,0.00
2022-09-01T01:37:00.675Z,0.00
2022-09-01T01:38:00.704Z,0.00
2022-09-01T01:39:00.610Z,0.00
2022-09-01T01:40:00.812Z,0.00
2022-09-01T01:41:00.595Z,0.00
2022-09-01T01:42:00.603Z,0.00
2022-09-01T01:43:00.552Z,0.00
2022-09-01T01:44:00.529Z,0.00
2022-09-01T01:45:00.547Z,0.00
2022-09-01T01:46:00.550Z,0.00
2022-09-01T01:47:00.552Z,0.00
2022-09-01T01:48:00.480Z,0.00
2022-09-01T01:49:00.439Z,0.00
2022-09-01T01:50:00.415Z,0.00
2022-09-01T01:51:00.411Z,0.00
2022-09-01T01:52:00.410Z,0.00
2022-09-01T01:53:00.355Z,0.00
2022-09-01T01:54:00.417Z,0.00
2022-09-01T01:55:04.990Z,0.00
2022-09-01T01:56:00.310Z,0.00
2022-09-01T01:57:00.320Z,0.00
2022-09-01T01:58:00.292Z,0.00
2022-09-01T01:59:00.292Z,0.00
2022-09-01T02:00:00.285Z,0.00
2022-09-01T02:01:00.246Z,0.00
2022-09-01T02:02:00.309Z,0.00
2022-09-01T02:03:00.210Z,0.00
2022-09-01T02:04:00.319Z,0.00
2022-09-01T02:05:00.144Z,0.00
2022-09-01T02:06:00.156Z,0.00
2022-09-01T02:07:00.110Z,0.00
2022-09-01T02:08:00.173Z,0.00
2022-09-01T02:09:00.080Z,0.00
2022-09-01T02:10:00.037Z,0.00
2022-09-01T02:11:00.077Z,0.00
2022-09-01T02:12:00.084Z,0.00
2022-09-01T02:12:59.985Z,0.00
2022-09-01T02:13:59.973Z,0.00
2022-09-01T02:14:59.960Z,0.00
2022-09-01T02:15:59.943Z,0.00
2022-09-01T02:16:59.957Z,0.00
2022-09-01T02:18:00.943Z,0.00
2022-09-01T02:18:59.903Z,0.00
2022-09-01T02:19:59.881Z,0.00
2022-09-01T02:20:59.903Z,0.00
2022-09-01T02:21:59.842Z,0.00
2022-09-01T02:22:59.794Z,0.00
2022-09-01T02:23:59.853Z,0.00
2022-09-01T02:24:59.781Z,0.00
2022-09-01T02:26:15.609Z,0.00
2022-09-01T02:27:00.750Z,0.00
2022-09-01T02:27:59.736Z,0.00
2022-09-01T02:28:59.685Z,0.00
2022-09-01T02:29:59.806Z,0.00
2022-09-01T02:30:59.731Z,0.00
2022-09-01T02:31:59.621Z,0.00
2022-09-01T02:32:59.636Z,0.00
2022-09-01T02:33:59.593Z,0.00
2022-09-01T02:34:59.586Z,0.00
2022-09-01T02:35:59.680Z,0.00
2022-09-01T02:36:59.672Z,0.00
2022-09-01T02:37:59.484Z,0.00
2022-09-01T02:38:59.582Z,0.00
2022-09-01T02:39:59.493Z,0.00
2022-09-01T02:40:59.471Z,0.00
2022-09-01T02:42:00.442Z,0.00
2022-09-01T02:42:59.447Z,0.00
2022-09-01T02:43:59.471Z,0.00
2022-09-01T02:44:59.405Z,0.00
2022-09-01T02:45:59.491Z,0.00
2022-09-01T02:46:59.352Z,0.00
2022-09-01T02:47:59.373Z,0.00
2022-09-01T02:48:59.322Z,1.00
2022-09-01T02:49:59.301Z,0.00
2022-09-01T02:50:59.285Z,0.00
2022-09-01T02:51:59.264Z,0.00
2022-09-01T02:53:03.326Z,0.00
2022-09-01T02:53:59.242Z,1.00
2022-09-01T02:54:59.275Z,0.00
2022-09-01T02:55:59.202Z,0.00
2022-09-01T02:56:59.170Z,0.00
2022-09-01T02:57:59.224Z,0.00
2022-09-01T02:58:59.148Z,0.00
2022-09-01T02:59:59.122Z,0.00
2022-09-01T03:00:59.155Z,0.00
2022-09-01T03:01:59.130Z,0.00
2022-09-01T03:02:59.099Z,0.00
2022-09-01T03:03:59.147Z,0.00
2022-09-01T03:04:59.084Z,0.00
2022-09-01T03:05:58.999Z,0.00
2022-09-01T03:06:59.107Z,0.00
2022-09-01T03:07:58.961Z,0.00
2022-09-01T03:08:59.005Z,0.00
2022-09-01T03:09:58.860Z,0.00
2022-09-01T03:10:58.934Z,0.00
2022-09-01T03:11:58.897Z,0.00
2022-09-01T03:12:58.942Z,0.00
2022-09-01T03:13:58.898Z,0.00
2022-09-01T03:14:58.844Z,0.00
2022-09-01T03:15:58.821Z,0.00
2022-09-01T03:16:58.823Z,0.00
2022-09-01T03:17:58.766Z,0.00
2022-09-01T03:18:58.800Z,0.00
2022-09-01T03:19:58.814Z,0.00
2022-09-01T03:20:58.766Z,0.00
2022-09-01T03:21:58.748Z,0.00
2022-09-01T03:22:58.726Z,0.00
2022-09-01T03:23:58.683Z,0.00
2022-09-01T03:24:58.649Z,0.00
2022-09-01T03:25:58.676Z,0.00
2022-09-01T03:26:58.621Z,0.00
2022-09-01T03:27:58.611Z,0.00
2022-09-01T03:28:58.515Z,0.00
2022-09-01T03:29:58.567Z,0.00
2022-09-01T03:30:58.596Z,0.00
2022-09-01T03:31:58.620Z,0.00
2022-09-01T03:32:58.499Z,0.00
2022-09-01T03:33:58.535Z,0.00
2022-09-01T03:34:58.473Z,0.00
2022-09-01T03:35:58.474Z,0.00
2022-09-01T03:36:58.470Z,0.00
2022-09-01T03:37:58.460Z,0.00
2022-09-01T03:38:58.407Z,0.00
2022-09-01T03:39:58.346Z,0.00
2022-09-01T03:40:58.358Z,0.00
2022-09-01T03:41:58.338Z,0.00
2022-09-01T03:42:58.347Z,0.00
2022-09-01T03:43:58.336Z,0.00
2022-09-01T03:44:58.306Z,0.00
2022-09-01T03:45:58.309Z,0.00
2022-09-01T03:46:58.335Z,0.00
2022-09-01T03:47:58.270Z,0.00
2022-09-01T03:48:58.192Z,0.00
2022-09-01T03:49:58.188Z,0.00
2022-09-01T03:50:58.162Z,0.00
2022-09-01T03:51:58.145Z,0.00
2022-09-01T03:52:58.146Z,0.00
2022-09-01T03:53:59.068Z,0.00
2022-09-01T03:54:58.108Z,0.00
2022-09-01T03:55:58.066Z,0.00
2022-09-01T03:56:58.067Z,0.00
2022-09-01T03:57:58.087Z,0.00
2022-09-01T03:58:58.048Z,0.00
2022-09-01T03:59:57.990Z,0.00
2022-09-01T04:00:58.095Z,0.00
2022-09-01T04:01:58.052Z,0.00
2022-09-01T04:02:57.989Z,0.00
2022-09-01T04:03:57.945Z,0.00
2022-09-01T04:04:57.886Z,0.00
2022-09-01T04:05:57.875Z,0.00
2022-09-01T04:06:57.866Z,0.00
2022-09-01T04:07:57.853Z,0.00
2022-09-01T04:08:57.861Z,1.00
2022-09-01T04:09:57.851Z,1.00
2022-09-01T04:10:57.797Z,1.00
2022-09-01T04:11:57.855Z,1.00
2022-09-01T04:12:57.750Z,1.00
2022-09-01T04:13:57.737Z,2.00
2022-09-01T04:14:57.747Z,1.00
2022-09-01T04:15:57.702Z,2.00
2022-09-01T04:16:57.710Z,2.00
2022-09-01T04:17:57.659Z,2.00
2022-09-01T04:18:57.696Z,5.00
2022-09-01T04:19:57.669Z,5.00
2022-09-01T04:20:57.668Z,5.00
2022-09-01T04:21:57.561Z,5.00
2022-09-01T04:22:57.583Z,4.00
2022-09-01T04:23:57.563Z,6.00
2022-09-01T04:24:57.561Z,7.00
2022-09-01T04:25:57.517Z,8.00
2022-09-01T04:26:57.507Z,10.00
2022-09-01T04:27:57.528Z,10.00
2022-09-01T04:28:57.451Z,14.00
2022-09-01T04:29:58.528Z,11.00
2022-09-01T04:30:57.420Z,14.00
2022-09-01T04:31:57.473Z,15.00
2022-09-01T04:32:57.358Z,18.00
2022-09-01T04:33:57.376Z,21.00
2022-09-01T04:34:57.388Z,22.00
2022-09-01T04:35:57.327Z,24.00
2022-09-01T04:36:57.358Z,27.00
2022-09-01T04:37:57.289Z,29.00
2022-09-01T04:38:57.286Z,30.00
2022-09-01T04:39:57.700Z,33.00
2022-09-01T04:40:57.226Z,37.00
2022-09-01T04:41:57.199Z,41.00
2022-09-01T04:42:57.201Z,42.00
2022-09-01T04:43:57.215Z,46.00
2022-09-01T04:44:57.187Z,49.00
2022-09-01T04:45:57.300Z,52.00
2022-09-01T04:46:57.136Z,55.00
2022-09-01T04:47:57.107Z,62.00
2022-09-01T04:48:57.090Z,65.00
2022-09-01T04:49:57.063Z,69.00
2022-09-01T04:50:57.086Z,74.00
2022-09-01T04:51:57.054Z,81.00
2022-09-01T04:52:57.051Z,88.00
2022-09-01T04:53:57.041Z,94.00
2022-09-01T04:54:57.070Z,100.00
2022-09-01T04:55:57.020Z,106.00
2022-09-01T04:56:56.941Z,110.00
2022-09-01T04:57:56.940Z,114.00
2022-09-01T04:58:56.932Z,122.00
2022-09-01T04:59:56.923Z,126.00
2022-09-01T05:00:56.973Z,131.00
2022-09-01T05:01:56.932Z,136.00
2022-09-01T05:02:56.846Z,139.00
2022-09-01T05:03:56.836Z,142.00
2022-09-01T05:04:56.817Z,147.00
2022-09-01T05:05:56.815Z,153.00
2022-09-01T05:06:56.780Z,159.00
2022-09-01T05:07:56.767Z,161.00
2022-09-01T05:08:56.742Z,170.00
2022-09-01T05:10:01.009Z,175.00
2022-09-01T05:10:56.988Z,183.00
2022-09-01T05:11:56.667Z,189.00
2022-09-01T05:12:56.675Z,194.00
2022-09-01T05:13:56.632Z,202.00
2022-09-01T05:14:56.637Z,203.00
2022-09-01T05:15:56.698Z,208.00
2022-09-01T05:16:56.604Z,212.00
2022-09-01T05:17:56.549Z,209.00
2022-09-01T05:18:56.535Z,230.00
2022-09-01T05:19:56.576Z,238.00
2022-09-01T05:20:56.516Z,220.00
2022-09-01T05:21:56.548Z,232.00
2022-09-01T05:22:56.474Z,231.00
2022-09-01T05:23:56.463Z,235.00
2022-09-01T05:24:56.451Z,257.00
2022-09-01T05:25:56.398Z,292.00
2022-09-01T05:26:56.439Z,299.00
2022-09-01T05:27:56.372Z,304.00
2022-09-01T05:28:56.427Z,312.00
2022-09-01T05:29:56.358Z,315.00
2022-09-01T05:30:56.323Z,318.00
2022-09-01T05:31:56.384Z,337.00
2022-09-01T05:32:56.281Z,347.00
2022-09-01T05:33:56.265Z,357.00
2022-09-01T05:34:56.241Z,362.00
2022-09-01T05:35:56.288Z,377.00
2022-09-01T05:36:56.249Z,391.00
2022-09-01T05:37:56.266Z,397.00
2022-09-01T05:38:56.159Z,401.00
2022-09-01T05:39:56.149Z,408.00
2022-09-01T05:40:56.152Z,423.00
2022-09-01T05:41:56.133Z,446.00
2022-09-01T05:42:56.144Z,468.00
2022-09-01T05:44:00.360Z,488.00
2022-09-01T05:44:56.097Z,504.00
2022-09-01T05:46:05.544Z,520.00
2022-09-01T05:46:57.154Z,537.00
2022-09-01T05:47:56.012Z,552.00
2022-09-01T05:48:55.968Z,545.00
2022-09-01T05:49:55.987Z,521.00
2022-09-01T05:50:55.954Z,537.00
2022-09-01T05:51:55.949Z,562.00
2022-09-01T05:52:55.941Z,490.00
2022-09-01T05:53:55.949Z,556.00
2022-09-01T05:54:55.871Z,790.00
2022-09-01T05:55:55.867Z,810.00
2022-09-01T05:56:55.840Z,801.00
2022-09-01T05:57:55.906Z,750.00
2022-09-01T05:59:26.086Z,663.00
2022-09-01T05:59:56.872Z,750.00
2022-09-01T06:00:55.765Z,668.00
2022-09-01T06:01:55.934Z,753.00
2022-09-01T06:02:55.923Z,703.00
2022-09-01T06:03:55.733Z,621.00
2022-09-01T06:04:55.708Z,590.00
2022-09-01T06:05:55.664Z,600.00
2022-09-01T06:07:06.108Z,577.00
2022-09-01T06:07:56.678Z,574.00
2022-09-01T06:08:55.600Z,567.00
2022-09-01T06:09:55.628Z,562.00
2022-09-01T06:10:55.562Z,575.00
2022-09-01T06:11:55.603Z,561.00
2022-09-01T06:12:55.569Z,538.00
2022-09-01T06:13:55.531Z,544.00
2022-09-01T06:14:55.500Z,529.00
2022-09-01T06:15:55.403Z,529.00
2022-09-01T06:16:55.467Z,534.00
2022-09-01T06:17:55.454Z,519.00
2022-09-01T06:18:55.486Z,513.00
2022-09-01T06:19:55.420Z,489.00
2022-09-01T06:20:55.466Z,475.00
2022-09-01T06:21:55.380Z,453.00
2022-09-01T06:22:55.351Z,428.00
2022-09-01T06:23:55.390Z,418.00
2022-09-01T06:24:59.530Z,415.00
2022-09-01T06:25:56.290Z,416.00
2022-09-01T06:26:55.249Z,414.00
2022-09-01T06:27:55.254Z,407.00
2022-09-01T06:28:55.299Z,405.00
2022-09-01T06:29:55.227Z,405.00
2022-09-01T06:30:55.199Z,409.00
2022-09-01T06:31:55.190Z,404.00
2022-09-01T06:32:55.170Z,400.00
2022-09-01T06:33:55.156Z,400.00
2022-09-01T06:34:55.146Z,404.00
2022-09-01T06:35:55.084Z,408.00
2022-09-01T06:36:55.140Z,415.00
2022-09-01T06:37:55.090Z,415.00
2022-09-01T06:38:55.066Z,416.00
2022-09-01T06:39:55.044Z,412.00
2022-09-01T06:40:55.194Z,415.00
2022-09-01T06:41:54.981Z,416.00
2022-09-01T06:42:54.951Z,430.00
2022-09-01T06:43:54.998Z,444.00
2022-09-01T06:44:54.953Z,454.00
2022-09-01T06:45:55.253Z,477.00
2022-09-01T06:46:54.995Z,498.00
2022-09-01T06:47:57.709Z,501.00
2022-09-01T06:48:55.893Z,514.00
2022-09-01T06:49:57.974Z,527.00
2022-09-01T06:51:55.789Z,556.00
2022-09-01T06:53:55.782Z,580.00
2022-09-01T06:54:55.138Z,597.00
2022-09-01T06:55:54.776Z,608.00
2022-09-01T06:56:54.706Z,620.00
2022-09-01T06:58:55.595Z,638.00
2022-09-01T06:59:54.659Z,624.00
2022-09-01T07:00:54.625Z,612.00
2022-09-01T07:02:01.417Z,611.00
2022-09-01T07:02:55.666Z,616.00
2022-09-01T07:03:54.609Z,622.00
2022-09-01T07:04:54.586Z,647.00
2022-09-01T07:06:02.652Z,676.00
2022-09-01T07:07:54.186Z,705.00
2022-09-01T07:08:05.251Z,716.00
2022-09-01T07:10:18.124Z,738.00
2022-09-01T07:12:25.310Z,705.00
2022-09-01T07:13:10.644Z,693.00
2022-09-01T07:17:23.212Z,685.00
2022-09-01T07:17:55.316Z,713.00
2022-09-01T07:18:59.804Z,738.00
2022-09-01T07:19:55.322Z,737.00
2022-09-01T07:21:38.776Z,727.00
2022-09-01T07:22:35.239Z,706.00
2022-09-01T07:23:10.470Z,692.00
2022-09-01T07:24:11.484Z,651.00
2022-09-01T07:25:11.945Z,622.00
2022-09-01T07:26:04.244Z,595.00
2022-09-01T07:26:55.141Z,544.00
2022-09-01T07:27:54.163Z,514.00
2022-09-01T07:29:04.209Z,492.00
2022-09-01T07:29:55.150Z,465.00
2022-09-01T07:30:54.138Z,452.00
2022-09-01T07:32:56.390Z,415.00
2022-09-01T07:34:54.930Z,396.00
2022-09-01T07:39:55.454Z,384.00
2022-09-01T07:43:54.838Z,464.00
2022-09-01T07:44:53.851Z,485.00
2022-09-01T07:46:36.690Z,505.00
2022-09-01T07:47:54.987Z,555.00
2022-09-01T07:50:24.149Z,608.00
2022-09-01T07:51:54.661Z,675.00
2022-09-01T07:52:53.679Z,722.00
2022-09-01T07:53:53.708Z,769.00
2022-09-01T07:54:53.664Z,821.00
2022-09-01T07:55:53.877Z,873.00
2022-09-01T07:56:53.671Z,934.00
2022-09-01T07:57:53.585Z,984.00
2022-09-01T07:58:53.593Z,1028.00
2022-09-01T07:59:53.564Z,1055.00
2022-09-01T08:00:53.557Z,1101.00
2022-09-01T08:01:53.637Z,1080.00
2022-09-01T08:02:57.029Z,1093.00
2022-09-01T08:03:53.504Z,1118.00
2022-09-01T08:04:53.554Z,1127.00
2022-09-01T08:05:53.450Z,1133.00
2022-09-01T08:06:53.480Z,1145.00
2022-09-01T08:07:53.458Z,1178.00
2022-09-01T08:08:57.008Z,1204.00
2022-09-01T08:09:55.986Z,1204.00
2022-09-01T08:10:54.395Z,1228.00
2022-09-01T08:12:08.806Z,1284.00
2022-09-01T08:12:57.478Z,1275.00
2022-09-01T08:13:53.310Z,1283.00
2022-09-01T08:15:40.390Z,1282.00
2022-09-01T08:16:16.886Z,1295.00
2022-09-01T08:16:54.358Z,1352.00
2022-09-01T08:17:53.257Z,1362.00
2022-09-01T08:18:53.378Z,1407.00
2022-09-01T08:19:53.178Z,1438.00
2022-09-01T08:20:53.444Z,1465.00
2022-09-01T08:21:53.154Z,1522.00
2022-09-01T08:22:53.160Z,1520.00
2022-09-01T08:23:53.121Z,1564.00
2022-09-01T08:24:53.076Z,1612.00
2022-09-01T08:25:53.059Z,1660.00
2022-09-01T08:26:53.057Z,1693.00
2022-09-01T08:27:59.763Z,1704.00
2022-09-01T08:28:55.479Z,1809.00
2022-09-01T08:29:53.047Z,1837.00
2022-09-01T08:30:53.186Z,1696.00
2022-09-01T08:31:52.963Z,1728.00
2022-09-01T08:32:52.974Z,1825.00
2022-09-01T08:33:52.948Z,1784.00
2022-09-01T08:34:52.905Z,1792.00
2022-09-01T08:35:54.007Z,1983.00
2022-09-01T08:36:52.883Z,2042.00
2022-09-01T08:37:54.155Z,1975.00
2022-09-01T08:38:52.912Z,1743.00
2022-09-01T08:39:52.846Z,1751.00
2022-09-01T08:40:56.370Z,1959.00
2022-09-01T08:41:52.866Z,1881.00
2022-09-01T08:42:52.754Z,1963.00
2022-09-01T08:43:52.797Z,1936.00
2022-09-01T08:44:52.739Z,2020.00
2022-09-01T08:45:52.790Z,1871.00
2022-09-01T08:46:52.707Z,1885.00
2022-09-01T08:48:22.510Z,1874.00
2022-09-01T08:49:53.550Z,1837.00
2022-09-01T08:50:52.947Z,1857.00
2022-09-01T08:51:52.600Z,1845.00
2022-09-01T08:52:53.044Z,1894.00
2022-09-01T08:53:52.660Z,1959.00
2022-09-01T08:54:52.612Z,2001.00
2022-09-01T08:55:52.546Z,2039.00
2022-09-01T08:56:52.507Z,2091.00
2022-09-01T08:57:57.101Z,2120.00
2022-09-01T08:58:54.302Z,2167.00
2022-09-01T08:59:52.541Z,2135.00
2022-09-01T09:00:54.897Z,2197.00
2022-09-01T09:01:52.449Z,2287.00
2022-09-01T09:02:52.436Z,2360.00
2022-09-01T09:03:52.361Z,2526.00
2022-09-01T09:04:52.389Z,2567.00
2022-09-01T09:05:52.320Z,2529.00
2022-09-01T09:06:52.337Z,2637.00
2022-09-01T09:07:52.273Z,2737.00
2022-09-01T09:08:52.268Z,2748.00
2022-09-01T09:09:54.258Z,2787.00
2022-09-01T09:10:52.293Z,2744.00
2022-09-01T09:11:52.211Z,2730.00
2022-09-01T09:12:52.185Z,2651.00
2022-09-01T09:13:52.193Z,2700.00
2022-09-01T09:14:52.189Z,2823.00
2022-09-01T09:15:52.194Z,2877.00
2022-09-01T09:16:53.792Z,2948.00
2022-09-01T09:17:57.492Z,2910.00
2022-09-01T09:18:56.576Z,2776.00
2022-09-01T09:19:52.088Z,2687.00
2022-09-01T09:20:52.036Z,2755.00
2022-09-01T09:21:52.086Z,2800.00
2022-09-01T09:22:52.029Z,2739.00
2022-09-01T09:23:52.015Z,2710.00
2022-09-01T09:24:52.566Z,2650.00
2022-09-01T09:25:52.007Z,2599.00
2022-09-01T09:26:51.956Z,2529.00
2022-09-01T09:28:00.413Z,2423.00
2022-09-01T09:28:52.913Z,2427.00
2022-09-01T09:29:51.875Z,2347.00
2022-09-01T09:30:51.989Z,2363.00
2022-09-01T09:31:52.186Z,2363.00
2022-09-01T09:33:30.506Z,2308.00
2022-09-01T09:33:53.839Z,2393.00
2022-09-01T09:34:51.826Z,2327.00
2022-09-01T09:35:51.786Z,2400.00
2022-09-01T09:36:55.298Z,2348.00
2022-09-01T09:37:51.791Z,2854.00
2022-09-01T09:38:51.744Z,7657.00
2022-09-01T09:39:51.808Z,8376.00
2022-09-01T09:41:14.077Z,17238.00
2022-09-01T09:41:52.743Z,3867.00
2022-09-01T09:42:51.638Z,2798.00
2022-09-01T09:43:52.237Z,2691.00
2022-09-01T09:44:51.622Z,3037.00
2022-09-01T09:45:51.666Z,2499.00
2022-09-01T09:46:51.696Z,2503.00
2022-09-01T09:47:51.571Z,5730.00
2022-09-01T09:48:51.561Z,4357.00
2022-09-01T09:49:51.574Z,2641.00
2022-09-01T09:50:51.518Z,2500.00
2022-09-01T09:51:51.498Z,2869.00
2022-09-01T09:52:51.469Z,3357.00
2022-09-01T09:53:51.427Z,2929.00
2022-09-01T09:54:51.485Z,2778.00
2022-09-01T09:55:55.422Z,2748.00
2022-09-01T09:56:51.464Z,2712.00
2022-09-01T09:57:51.441Z,3882.00
2022-09-01T09:58:51.368Z,1616.00
2022-09-01T09:59:59.153Z,1644.00
2022-09-01T10:00:52.328Z,1560.00
2022-09-01T10:01:51.331Z,1510.00
2022-09-01T10:02:51.301Z,1518.00
2022-09-01T10:03:51.292Z,1550.00
2022-09-01T10:04:55.616Z,2655.00
2022-09-01T10:05:51.191Z,2837.00
2022-09-01T10:06:51.202Z,1730.00
2022-09-01T10:07:51.188Z,1651.00
2022-09-01T10:08:51.169Z,1683.00
2022-09-01T10:09:51.144Z,1768.00
2022-09-01T10:10:58.166Z,1961.00
2022-09-01T10:11:52.112Z,1893.00
2022-09-01T10:12:51.129Z,2563.00
2022-09-01T10:13:51.538Z,2537.00
2022-09-01T10:14:53.513Z,2338.00
2022-09-01T10:15:51.278Z,2219.00
2022-09-01T10:16:52.228Z,2178.00
2022-09-01T10:17:51.142Z,2148.00
2022-09-01T10:18:51.349Z,1649.00
2022-09-01T10:19:50.950Z,1486.00
2022-09-01T10:20:51.024Z,1537.00
2022-09-01T10:21:50.949Z,1528.00
2022-09-01T10:22:50.944Z,1484.00
2022-09-01T10:23:50.932Z,1509.00
2022-09-01T10:24:50.848Z,1522.00
2022-09-01T10:25:50.894Z,1462.00
2022-09-01T10:26:50.837Z,1392.00
2022-09-01T10:27:51.167Z,1392.00
2022-09-01T10:28:50.948Z,1408.00
2022-09-01T10:29:50.846Z,1446.00
2022-09-01T10:30:50.837Z,1498.00
2022-09-01T10:32:03.488Z,1524.00
2022-09-01T10:32:55.656Z,1536.00
2022-09-01T10:33:50.760Z,1518.00
2022-09-01T10:34:50.653Z,1532.00
2022-09-01T10:35:50.699Z,1523.00
2022-09-01T10:36:56.077Z,1562.00
2022-09-01T10:37:52.695Z,1654.00
2022-09-01T10:38:53.580Z,1743.00
2022-09-01T10:39:51.630Z,1836.00
2022-09-01T10:40:50.630Z,1853.00
2022-09-01T10:41:53.219Z,1863.00
2022-09-01T10:42:52.059Z,1893.00
2022-09-01T10:43:50.516Z,1941.00
2022-09-01T10:44:50.469Z,2042.00
2022-09-01T10:45:57.720Z,1936.00
2022-09-01T10:46:51.594Z,1891.00
2022-09-01T10:47:50.520Z,1901.00
2022-09-01T10:48:55.881Z,1784.00
2022-09-01T10:49:51.457Z,1676.00
2022-09-01T10:50:50.425Z,1696.00
2022-09-01T10:51:52.078Z,1729.00
2022-09-01T10:52:53.586Z,1718.00
2022-09-01T10:53:51.264Z,1655.00
2022-09-01T10:54:51.862Z,1639.00
2022-09-01T10:55:50.299Z,1651.00
2022-09-01T10:56:51.736Z,1639.00
2022-09-01T10:57:50.292Z,1639.00
2022-09-01T10:59:56.226Z,1827.00
2022-09-01T11:01:51.237Z,2246.00
2022-09-01T11:02:50.212Z,2956.00
2022-09-01T11:03:51.859Z,2978.00
2022-09-01T11:04:50.311Z,8059.00
2022-09-01T11:05:50.119Z,2953.00
2022-09-01T11:08:01.333Z,5175.00
2022-09-01T11:08:51.273Z,4237.00
2022-09-01T11:09:50.006Z,4691.00
2022-09-01T11:10:49.986Z,3444.00
2022-09-01T11:11:50.041Z,6303.00
2022-09-01T11:12:49.917Z,8829.00
2022-09-01T11:13:50.282Z,4453.00
2022-09-01T11:14:49.990Z,3122.00
2022-09-01T11:15:50.014Z,3816.00
2022-09-01T11:16:50.229Z,5287.00
2022-09-01T11:17:49.912Z,2709.00
2022-09-01T11:18:49.971Z,3608.00
2022-09-01T11:19:49.959Z,3348.00
2022-09-01T11:20:49.801Z,2148.00
2022-09-01T11:21:49.835Z,2278.00
2022-09-01T11:22:49.756Z,2591.00
2022-09-01T11:23:49.803Z,2657.00
2022-09-01T11:24:57.894Z,2151.00
2022-09-01T11:26:19.068Z,2121.00
2022-09-01T11:26:50.632Z,3005.00
2022-09-01T11:27:49.646Z,2488.00
2022-09-01T11:28:49.768Z,2007.00
2022-09-01T11:29:49.684Z,1962.00
2022-09-01T11:30:49.612Z,1864.00
2022-09-01T11:31:49.713Z,1835.00
2022-09-01T11:32:49.641Z,1922.00
2022-09-01T11:33:49.566Z,2037.00
2022-09-01T11:34:49.597Z,2039.00
2022-09-01T11:35:49.646Z,2894.00
2022-09-01T11:36:49.540Z,2352.00
2022-09-01T11:37:49.609Z,2865.00
2022-09-01T11:38:49.500Z,2747.00
2022-09-01T11:39:49.420Z,2898.00
2022-09-01T11:40:49.558Z,2874.00
2022-09-01T11:41:54.491Z,2896.00
2022-09-01T11:42:50.458Z,2936.00
2022-09-01T11:43:49.359Z,2971.00
2022-09-01T11:44:49.399Z,2256.00
2022-09-01T11:45:49.453Z,2524.00
2022-09-01T11:46:49.275Z,2890.00
2022-09-01T11:47:49.353Z,2905.00
2022-09-01T11:48:51.928Z,2535.00
2022-09-01T11:49:49.296Z,2813.00
2022-09-01T11:50:49.274Z,2619.00
2022-09-01T11:51:49.265Z,1959.00
2022-09-01T11:52:49.257Z,2014.00
2022-09-01T11:53:49.140Z,2124.00
2022-09-01T11:54:49.174Z,2872.00
2022-09-01T11:55:49.185Z,3004.00
2022-09-01T11:56:49.129Z,2090.00
2022-09-01T11:57:49.082Z,1912.00
2022-09-01T11:58:49.054Z,1812.00
2022-09-01T11:59:49.053Z,1732.00
2022-09-01T12:00:49.047Z,1641.00
2022-09-01T12:01:49.118Z,1508.00
2022-09-01T12:02:49.691Z,1417.00
2022-09-01T12:03:49.108Z,1372.00
2022-09-01T12:04:49.005Z,1400.00
2022-09-01T12:05:49.005Z,1410.00
2022-09-01T12:06:48.995Z,1426.00
2022-09-01T12:07:48.916Z,1454.00
2022-09-01T12:08:48.795Z,1438.00
2022-09-01T12:09:48.834Z,1435.00
2022-09-01T12:10:48.874Z,1543.00
2022-09-01T12:11:48.874Z,1897.00
2022-09-01T12:12:48.941Z,1670.00
2022-09-01T12:13:48.760Z,1638.00
2022-09-01T12:15:04.710Z,1572.00
2022-09-01T12:16:14.116Z,1573.00
2022-09-01T12:16:49.739Z,1585.00
2022-09-01T12:17:48.697Z,1646.00
2022-09-01T12:18:48.819Z,1662.00
2022-09-01T12:19:48.656Z,1716.00
2022-09-01T12:21:50.129Z,2642.00
2022-09-01T12:22:49.748Z,4946.00
2022-09-01T12:23:48.563Z,2493.00
2022-09-01T12:24:48.624Z,4649.00
2022-09-01T12:25:48.500Z,2639.00
2022-09-01T12:26:48.534Z,2500.00
2022-09-01T12:27:48.545Z,2532.00
2022-09-01T12:28:48.619Z,3587.00
2022-09-01T12:29:48.542Z,3826.00
2022-09-01T12:30:48.467Z,3048.00
2022-09-01T12:31:48.599Z,2996.00
2022-09-01T12:32:48.493Z,3730.00
2022-09-01T12:33:48.618Z,5425.00
2022-09-01T12:34:48.475Z,4717.00
2022-09-01T12:35:48.444Z,5289.00
2022-09-01T12:36:48.365Z,5026.00
2022-09-01T12:37:48.344Z,4769.00
2022-09-01T12:38:48.364Z,4666.00
2022-09-01T12:39:48.384Z,5158.00
2022-09-01T12:40:48.393Z,5362.00
2022-09-01T12:41:48.612Z,5435.00
2022-09-01T12:42:48.359Z,5605.00
2022-09-01T12:43:52.014Z,5369.00
2022-09-01T12:44:50.623Z,5442.00
2022-09-01T12:45:48.199Z,2002.00
2022-09-01T12:46:48.268Z,2014.00
2022-09-01T12:47:49.958Z,5472.00
2022-09-01T12:48:49.568Z,5199.00
2022-09-01T12:49:52.041Z,5063.00
2022-09-01T12:50:48.174Z,5142.00
2022-09-01T12:51:48.066Z,5131.00
2022-09-01T12:52:48.118Z,5114.00
2022-09-01T12:53:48.107Z,5105.00
2022-09-01T12:54:48.034Z,5059.00
2022-09-01T12:55:48.189Z,5030.00
2022-09-01T12:56:47.959Z,5014.00
2022-09-01T12:57:48.018Z,5000.00
2022-09-01T12:58:47.958Z,4922.00
2022-09-01T12:59:49.846Z,4894.00
2022-09-01T13:00:47.966Z,4938.00